createdAt,value
2019-04-11T00:02:18.680Z,13.03
2019-04-11T00:04:46.420Z,13.07
2019-04-11T00:07:14.282Z,13.20
2019-04-11T00:09:42.867Z,13.57
2019-04-11T00:12:10.428Z,13.00
2019-04-11T00:14:38.140Z,12.50
2019-04-11T00:17:05.804Z,13.60
2019-04-11T00:19:33.631Z,14.13
2019-04-11T00:22:01.497Z,13.70
2019-04-11T00:24:29.191Z,13.93
2019-04-11T00:26:57.076Z,13.67
2019-04-11T00:29:24.420Z,12.93
2019-04-11T00:31:52.759Z,13.93
2019-04-11T00:34:20.661Z,13.60
2019-04-11T00:36:48.541Z,13.73
2019-04-11T00:39:16.263Z,14.77
2019-04-11T00:41:43.620Z,13.87
2019-04-11T00:44:10.847Z,13.60
2019-04-11T00:46:38.437Z,14.20
2019-04-11T00:49:06.205Z,13.83
2019-04-11T00:51:34.080Z,14.07
2019-04-11T00:54:02.586Z,14.37
2019-04-11T00:56:30.572Z,13.73
2019-04-11T00:58:58.365Z,15.47
2019-04-11T01:01:26.010Z,16.00
2019-04-11T01:03:53.721Z,14.90
2019-04-11T01:06:22.454Z,15.63
2019-04-11T01:08:49.959Z,15.80
2019-04-11T01:11:17.511Z,16.80
2019-04-11T01:13:50.914Z,16.00
2019-04-11T01:16:21.835Z,17.43
2019-04-11T01:18:49.976Z,16.77
2019-04-11T01:21:17.909Z,16.17
2019-04-11T01:23:45.261Z,16.67
2019-04-11T01:26:12.855Z,16.57
2019-04-11T01:28:40.772Z,16.43
2019-04-11T01:31:09.909Z,18.13
2019-04-11T01:33:37.974Z,16.73
2019-04-11T01:36:05.425Z,17.07
2019-04-11T01:38:34.673Z,16.97
2019-04-11T01:41:02.452Z,16.43
2019-04-11T01:43:30.740Z,16.37
2019-04-11T01:45:58.351Z,16.30
2019-04-11T01:48:43.872Z,16.83
2019-04-11T01:51:11.636Z,16.80
2019-04-11T01:53:40.567Z,17.90
2019-04-11T01:56:09.349Z,17.87
2019-04-11T01:58:37.161Z,18.57
2019-04-11T02:01:18.865Z,17.20
2019-04-11T02:04:01.962Z,17.30
2019-04-11T02:06:29.877Z,18.53
2019-04-11T02:08:57.745Z,18.43
2019-04-11T02:11:25.610Z,17.67
2019-04-11T02:14:05.131Z,17.60
2019-04-11T02:16:23.062Z,17.63
2019-04-11T02:18:50.500Z,17.70
2019-04-11T02:21:17.854Z,18.47
2019-04-11T02:24:11.936Z,18.40
2019-04-11T02:26:39.345Z,18.10
2019-04-11T02:29:06.657Z,18.17
2019-04-11T02:31:34.935Z,18.23
2019-04-11T02:34:04.439Z,18.80
2019-04-11T02:36:33.716Z,18.67
2019-04-11T02:39:06.155Z,19.23
2019-04-11T02:41:31.843Z,19.33
2019-04-11T02:44:01.332Z,19.50
2019-04-11T02:46:38.203Z,20.57
2019-04-11T02:49:01.494Z,21.23
2019-04-11T02:51:31.018Z,20.83
2019-04-11T02:53:59.047Z,20.10
2019-04-11T02:56:27.806Z,20.30
2019-04-11T02:58:56.544Z,19.47
2019-04-11T03:01:24.341Z,19.00
2019-04-11T03:03:53.750Z,19.00
2019-04-11T03:06:23.334Z,20.13
2019-04-11T03:08:50.976Z,19.73
2019-04-11T03:11:19.743Z,18.63
2019-04-11T03:13:52.660Z,19.43
2019-04-11T03:16:32.826Z,19.00
2019-04-11T03:19:05.661Z,19.03
2019-04-11T03:21:21.750Z,19.80
2019-04-11T03:23:49.333Z,19.63
2019-04-11T03:26:18.987Z,19.20
2019-04-11T03:28:49.531Z,20.03
2019-04-11T03:31:59.134Z,19.77
2019-04-11T03:34:53.224Z,20.30
2019-04-11T03:39:07.733Z,20.73
2019-04-11T03:41:26.851Z,19.37
2019-04-11T03:43:57.011Z,20.07
2019-04-11T03:46:30.206Z,20.47
2019-04-11T03:48:58.510Z,21.10
2019-04-11T03:51:12.972Z,19.77
2019-04-11T03:53:41.151Z,19.57
2019-04-11T03:56:09.786Z,20.37
2019-04-11T03:58:39.517Z,20.80
2019-04-11T04:01:10.557Z,20.93
2019-04-11T04:03:36.676Z,21.17
2019-04-11T04:06:06.882Z,20.27
2019-04-11T04:08:36.355Z,21.40
2019-04-11T04:11:09.171Z,21.90
2019-04-11T04:13:39.168Z,20.27
2019-04-11T04:16:24.908Z,21.23
2019-04-11T04:18:58.777Z,20.23
2019-04-11T04:21:55.333Z,20.30
2019-04-11T04:24:34.792Z,21.10
2019-04-11T04:27:01.717Z,21.47
2019-04-11T04:29:29.587Z,21.30
2019-04-11T04:31:59.362Z,20.77
2019-04-11T04:34:28.379Z,20.00
2019-04-11T04:36:57.738Z,21.60
2019-04-11T04:39:27.247Z,21.53
2019-04-11T04:42:04.182Z,21.33
2019-04-11T04:44:24.844Z,21.53
2019-04-11T04:47:07.630Z,20.87
2019-04-11T04:49:24.631Z,20.90
2019-04-11T04:51:53.329Z,21.73
2019-04-11T04:54:22.189Z,21.93
2019-04-11T04:56:50.389Z,22.57
2019-04-11T04:59:19.306Z,21.07
2019-04-11T05:01:48.309Z,22.77
2019-04-11T05:04:15.895Z,21.23
2019-04-11T05:06:46.581Z,23.43
2019-04-11T05:09:12.878Z,22.47
2019-04-11T05:11:40.291Z,22.30
2019-04-11T05:14:07.526Z,22.10
2019-04-11T05:16:35.715Z,22.87
2019-04-11T05:19:04.408Z,23.43
2019-04-11T05:21:32.992Z,21.93
2019-04-11T05:24:00.458Z,22.20
2019-04-11T05:26:27.906Z,20.80
2019-04-11T05:28:55.857Z,21.03
2019-04-11T05:31:23.415Z,20.80
2019-04-11T05:33:52.318Z,19.43
2019-04-11T05:36:21.342Z,19.73
2019-04-11T05:38:49.163Z,20.00
2019-04-11T05:41:17.431Z,20.20
2019-04-11T05:43:45.781Z,19.27
2019-04-11T05:46:26.055Z,19.33
2019-04-11T05:48:58.952Z,18.70
2019-04-11T05:51:23.831Z,18.37
2019-04-11T05:53:54.498Z,19.00
2019-04-11T05:56:27.835Z,18.60
2019-04-11T05:58:57.840Z,17.63
2019-04-11T06:01:29.235Z,17.07
2019-04-11T06:04:00.489Z,17.10
2019-04-11T06:06:44.341Z,17.10
2019-04-11T06:09:16.452Z,15.93
2019-04-11T06:11:56.454Z,15.27
2019-04-11T06:14:47.165Z,14.50
2019-04-11T06:17:16.488Z,14.37
2019-04-11T06:20:02.345Z,13.57
2019-04-11T06:22:29.784Z,12.63
2019-04-11T06:25:16.548Z,12.93
2019-04-11T06:27:53.766Z,13.20
2019-04-11T06:30:52.809Z,11.70
2019-04-11T06:33:24.747Z,11.83
2019-04-11T06:36:09.621Z,12.27
2019-04-11T06:38:54.703Z,10.73
2019-04-11T06:41:31.255Z,11.27
2019-04-11T06:44:04.899Z,11.83
2019-04-11T06:46:55.796Z,11.00
2019-04-11T06:49:34.186Z,11.10
2019-04-11T06:52:04.324Z,11.70
2019-04-11T06:54:37.268Z,10.73
2019-04-11T06:57:09.681Z,11.30
2019-04-11T06:59:40.735Z,11.00
2019-04-11T07:02:17.508Z,9.80
2019-04-11T07:04:44.053Z,10.70
2019-04-11T07:07:12.954Z,10.57
2019-04-11T07:10:06.199Z,11.13
2019-04-11T07:12:42.777Z,10.70
2019-04-11T07:15:16.247Z,10.77
2019-04-11T07:18:04.698Z,11.27
2019-04-11T07:20:49.876Z,10.33
2019-04-11T07:23:36.430Z,10.57
2019-04-11T07:26:16.677Z,10.77
2019-04-11T07:29:04.537Z,10.23
2019-04-11T07:32:07.068Z,9.83
2019-04-11T07:35:00.105Z,10.00
2019-04-11T07:37:32.453Z,10.67
2019-04-11T07:40:26.896Z,10.90
2019-04-11T07:43:14.978Z,11.03
2019-04-11T07:46:04.721Z,10.07
2019-04-11T07:48:42.633Z,10.67
2019-04-11T07:51:23.688Z,11.50
2019-04-11T07:53:52.549Z,12.40
2019-04-11T07:56:38.481Z,11.67
2019-04-11T07:59:10.729Z,12.63
2019-04-11T08:01:56.179Z,11.30
2019-04-11T08:04:42.919Z,11.97
2019-04-11T08:07:24.433Z,12.03
2019-04-11T08:09:57.853Z,11.67
2019-04-11T08:12:27.771Z,10.93
2019-04-11T08:15:29.931Z,11.53
2019-04-11T08:17:59.854Z,11.50
2019-04-11T08:20:45.722Z,11.63
2019-04-11T08:23:13.772Z,12.23
2019-04-11T08:25:59.910Z,12.30
2019-04-11T08:28:28.947Z,12.80
2019-04-11T08:31:24.587Z,12.43
2019-04-11T08:33:55.047Z,12.57
2019-04-11T08:36:42.016Z,13.60
2019-04-11T08:39:15.813Z,13.40
2019-04-11T08:41:53.829Z,13.13
2019-04-11T08:44:25.964Z,12.27
2019-04-11T08:46:58.254Z,13.50
2019-04-11T08:49:45.947Z,13.07
2019-04-11T08:52:26.060Z,13.03
2019-04-11T08:55:04.296Z,13.00
2019-04-11T08:57:34.123Z,13.60
2019-04-11T09:00:19.991Z,12.87
2019-04-11T09:02:55.629Z,13.87
2019-04-11T09:05:49.305Z,12.73
2019-04-11T09:08:48.903Z,12.33
2019-04-11T09:11:39.611Z,12.20
2019-04-11T09:14:26.391Z,12.17
2019-04-11T09:17:16.477Z,12.87
2019-04-11T09:20:05.376Z,13.00
2019-04-11T09:22:42.339Z,12.67
2019-04-11T09:25:41.658Z,12.93
2019-04-11T09:28:27.505Z,12.33
2019-04-11T09:31:15.361Z,11.70
2019-04-11T09:33:59.575Z,12.13
2019-04-11T09:36:45.259Z,12.33
2019-04-11T09:39:41.470Z,12.17
2019-04-11T09:42:28.306Z,12.53
2019-04-11T09:45:21.741Z,12.07
2019-04-11T09:48:27.279Z,11.40
2019-04-11T09:51:13.554Z,10.97
2019-04-11T09:53:42.979Z,9.60
2019-04-11T09:56:29.229Z,10.53
2019-04-11T09:59:00.185Z,9.93
2019-04-11T10:01:58.259Z,9.07
2019-04-11T10:04:27.913Z,9.80
2019-04-11T10:07:21.689Z,9.93
2019-04-11T10:10:08.656Z,10.07
2019-04-11T10:12:54.183Z,8.93
2019-04-11T10:15:31.515Z,9.30
2019-04-11T10:18:25.358Z,10.00
2019-04-11T10:20:46.759Z,10.00
2019-04-11T10:23:32.534Z,9.83
2019-04-11T10:26:03.426Z,9.83
2019-04-11T10:28:47.924Z,10.60
2019-04-11T10:31:20.356Z,10.10
2019-04-11T10:34:23.627Z,10.77
2019-04-11T10:36:57.243Z,9.60
2019-04-11T10:39:46.845Z,11.13
2019-04-11T10:42:14.821Z,11.83
2019-04-11T10:44:56.213Z,11.07
2019-04-11T10:47:25.572Z,11.67
2019-04-11T10:50:19.576Z,11.57
2019-04-11T10:52:53.083Z,11.33
2019-04-11T10:55:25.231Z,10.93
2019-04-11T10:58:08.791Z,10.77
2019-04-11T11:00:55.731Z,10.50
2019-04-11T11:03:34.466Z,10.53
2019-04-11T11:06:03.141Z,10.53
2019-04-11T11:08:39.790Z,10.30
2019-04-11T11:11:14.787Z,10.50
2019-04-11T11:14:00.411Z,10.53
2019-04-11T11:16:34.186Z,10.83
2019-04-11T11:19:40.417Z,10.73
2019-04-11T11:21:57.502Z,10.63
2019-04-11T11:25:00.071Z,10.97
2019-04-11T11:27:27.905Z,9.77
2019-04-11T11:30:13.043Z,10.40
2019-04-11T11:32:43.233Z,10.07
2019-04-11T11:35:33.782Z,10.30
2019-04-11T11:38:04.389Z,10.33
2019-04-11T11:41:00.358Z,10.30
2019-04-11T11:43:32.998Z,9.67
2019-04-11T11:46:36.252Z,10.53
2019-04-11T11:49:12.208Z,10.43
2019-04-11T11:52:08.924Z,9.80
2019-04-11T11:54:39.858Z,9.57
2019-04-11T11:57:23.680Z,9.70
2019-04-11T11:59:58.888Z,10.13
2019-04-11T12:02:34.770Z,10.27
2019-04-11T12:05:20.781Z,10.77
2019-04-11T12:08:10.794Z,9.73
2019-04-11T12:10:43.805Z,9.27
2019-04-11T12:13:45.686Z,9.40
2019-04-11T12:16:39.727Z,8.83
2019-04-11T12:19:19.936Z,9.00
2019-04-11T12:21:48.947Z,9.57
2019-04-11T12:24:32.531Z,8.73
2019-04-11T12:27:18.475Z,8.80
2019-04-11T12:30:09.569Z,8.30
2019-04-11T12:32:42.321Z,8.00
2019-04-11T12:35:28.845Z,8.33
2019-04-11T12:38:01.152Z,8.10
2019-04-11T12:40:46.861Z,8.53
2019-04-11T12:43:14.189Z,8.80
2019-04-11T12:46:13.065Z,8.57
2019-04-11T12:48:46.519Z,9.00
2019-04-11T12:51:42.643Z,8.40
2019-04-11T12:54:16.640Z,8.30
2019-04-11T12:57:09.787Z,8.53
2019-04-11T12:59:37.351Z,8.53
2019-04-11T13:02:30.672Z,8.13
2019-04-11T13:04:57.972Z,8.77
2019-04-11T13:07:45.188Z,8.60
2019-04-11T13:10:33.012Z,8.10
2019-04-11T13:13:19.780Z,8.90
2019-04-11T13:16:16.248Z,8.70
2019-04-11T13:19:03.054Z,9.03
2019-04-11T13:21:49.733Z,8.97
2019-04-11T13:24:39.572Z,8.47
2019-04-11T13:27:17.720Z,7.83
2019-04-11T13:30:04.531Z,8.33
2019-04-11T13:32:57.907Z,8.27
2019-04-11T13:35:38.485Z,8.03
2019-04-11T13:38:11.013Z,8.30
2019-04-11T13:41:03.632Z,8.10
2019-04-11T13:44:06.723Z,8.23
2019-04-11T13:46:53.477Z,8.50
2019-04-11T13:49:40.655Z,7.63
2019-04-11T13:52:30.229Z,7.50
2019-04-11T13:55:29.180Z,8.33
2019-04-11T13:58:15.998Z,7.57
2019-04-11T14:00:47.432Z,7.60
2019-04-11T14:03:29.488Z,7.47
2019-04-11T14:05:59.299Z,6.70
2019-04-11T14:08:32.676Z,7.20
2019-04-11T14:11:05.936Z,7.30
2019-04-11T14:13:41.229Z,7.30
2019-04-11T14:16:17.400Z,7.13
2019-04-11T14:19:11.706Z,7.20
2019-04-11T14:21:37.691Z,6.60
2019-04-11T14:24:23.194Z,6.50
2019-04-11T14:26:52.311Z,6.87
2019-04-11T14:29:48.195Z,6.70
2019-04-11T14:32:24.182Z,6.83
2019-04-11T14:35:17.461Z,7.63
2019-04-11T14:37:51.857Z,7.47
2019-04-11T14:40:41.667Z,7.00
2019-04-11T14:43:28.549Z,7.63
2019-04-11T14:46:23.967Z,7.07
2019-04-11T14:48:54.563Z,7.40
2019-04-11T14:51:58.352Z,7.20
2019-04-11T14:54:37.584Z,6.17
2019-04-11T14:57:24.071Z,7.50
2019-04-11T14:59:56.192Z,7.00
2019-04-11T15:02:42.159Z,7.40
2019-04-11T15:05:14.434Z,7.27
2019-04-11T15:07:43.682Z,7.93
2019-04-11T15:10:29.084Z,7.50
2019-04-11T15:12:56.519Z,6.97
2019-04-11T15:15:31.168Z,7.57
2019-04-11T15:18:01.165Z,7.07
2019-04-11T15:20:54.788Z,7.00
2019-04-11T15:23:37.494Z,6.53
2019-04-11T15:26:23.433Z,7.10
2019-04-11T15:28:53.329Z,8.27
2019-04-11T15:31:39.286Z,7.83
2019-04-11T15:34:21.385Z,7.80
2019-04-11T15:37:11.144Z,8.17
2019-04-11T15:39:57.692Z,8.07
2019-04-11T15:42:47.553Z,7.60
2019-04-11T15:45:21.915Z,7.57
2019-04-11T15:48:04.039Z,7.53
2019-04-11T15:50:49.881Z,8.10
2019-04-11T15:53:23.477Z,8.17
2019-04-11T15:56:12.845Z,8.20
2019-04-11T15:58:45.202Z,7.37
2019-04-11T16:01:30.588Z,8.20
2019-04-11T16:04:05.527Z,7.57
2019-04-11T16:06:43.878Z,7.60
2019-04-11T16:09:16.291Z,7.80
2019-04-11T16:11:54.857Z,8.07
2019-04-11T16:14:36.579Z,7.57
2019-04-11T16:17:30.015Z,7.70
2019-04-11T16:20:00.539Z,7.17
2019-04-11T16:22:59.192Z,8.67
2019-04-11T16:25:28.994Z,8.30
2019-04-11T16:28:10.855Z,7.83
2019-04-11T16:30:40.583Z,7.27
2019-04-11T16:33:39.462Z,7.60
2019-04-11T16:36:29.280Z,8.33
2019-04-11T16:39:17.767Z,7.80
2019-04-11T16:42:13.096Z,8.63
2019-04-11T16:44:58.622Z,7.73
2019-04-11T16:48:01.910Z,7.87
2019-04-11T16:50:29.751Z,8.03
2019-04-11T16:52:57.348Z,8.80
2019-04-11T16:55:26.431Z,8.60
2019-04-11T16:57:54.336Z,8.13
2019-04-11T17:00:21.721Z,8.43
2019-04-11T17:02:48.946Z,7.90
2019-04-11T17:05:16.153Z,7.80
2019-04-11T17:08:09.051Z,7.80
2019-04-11T17:10:56.567Z,8.20
2019-04-11T17:13:23.814Z,7.93
2019-04-11T17:15:52.850Z,7.53
2019-04-11T17:18:20.103Z,8.10
2019-04-11T17:20:47.400Z,7.80
2019-04-11T17:23:17.238Z,9.33
2019-04-11T17:26:06.247Z,8.80
2019-04-11T17:28:34.754Z,8.77
2019-04-11T17:31:02.709Z,8.10
2019-04-11T17:33:30.752Z,11.00
2019-04-11T17:36:02.016Z,10.73
2019-04-11T17:38:28.757Z,8.30
2019-04-11T17:40:56.944Z,8.30
2019-04-11T17:43:24.626Z,7.90
2019-04-11T17:45:56.912Z,10.90
2019-04-11T17:48:24.074Z,8.53
2019-04-11T17:50:52.454Z,9.17
2019-04-11T17:53:22.675Z,11.20
2019-04-11T17:55:54.275Z,7.83
2019-04-11T17:58:30.520Z,7.97
2019-04-11T18:01:00.622Z,8.10
2019-04-11T18:03:29.085Z,7.83
2019-04-11T18:05:57.298Z,8.43
2019-04-11T18:08:24.603Z,10.60
2019-04-11T18:10:55.744Z,8.57
2019-04-11T18:13:21.417Z,10.20
2019-04-11T18:15:49.079Z,8.90
2019-04-11T18:18:19.594Z,8.67
2019-04-11T18:20:48.208Z,8.57
2019-04-11T18:23:22.756Z,8.80
2019-04-11T18:25:51.102Z,9.10
2019-04-11T18:28:21.657Z,10.10
2019-04-11T18:30:53.781Z,8.90
2019-04-11T18:33:20.932Z,9.63
2019-04-11T18:35:48.964Z,9.67
2019-04-11T18:38:16.300Z,9.27
2019-04-11T18:40:43.552Z,10.20
2019-04-11T18:43:10.835Z,9.53
2019-04-11T18:45:38.125Z,10.27
2019-04-11T18:48:05.464Z,9.50
2019-04-11T18:50:32.691Z,9.47
2019-04-11T18:53:00.698Z,9.83
2019-04-11T18:55:31.238Z,9.03
2019-04-11T18:58:03.858Z,8.60
2019-04-11T19:00:30.576Z,9.03
2019-04-11T19:02:58.188Z,9.50
2019-04-11T19:05:28.888Z,10.63
2019-04-11T19:07:54.763Z,10.70
2019-04-11T19:10:22.255Z,11.73
2019-04-11T19:12:49.768Z,11.97
2019-04-11T19:15:17.562Z,11.77
2019-04-11T19:17:46.768Z,9.33
2019-04-11T19:20:18.843Z,9.40
2019-04-11T19:22:44.237Z,9.27
2019-04-11T19:25:13.708Z,8.70
2019-04-11T19:27:40.932Z,9.40
2019-04-11T19:30:08.843Z,9.10
2019-04-11T19:32:36.067Z,9.20
2019-04-11T19:35:03.851Z,8.83
2019-04-11T19:37:31.064Z,9.37
2019-04-11T19:39:58.366Z,10.93
2019-04-11T19:42:25.995Z,9.20
2019-04-11T19:44:53.293Z,9.67
2019-04-11T19:47:21.667Z,9.67
2019-04-11T19:49:50.011Z,8.43
2019-04-11T19:52:17.575Z,9.10
2019-04-11T19:54:44.952Z,8.30
2019-04-11T19:57:12.491Z,8.90
2019-04-11T19:59:39.875Z,8.77
2019-04-11T20:02:07.152Z,8.93
2019-04-11T20:04:34.441Z,8.83
2019-04-11T20:07:01.664Z,8.27
2019-04-11T20:09:29.262Z,8.83
2019-04-11T20:11:59.926Z,9.00
2019-04-11T20:14:25.989Z,8.23
2019-04-11T20:16:53.259Z,8.90
2019-04-11T20:19:20.824Z,8.73
2019-04-11T20:21:48.097Z,8.33
2019-04-11T20:24:15.432Z,7.73
2019-04-11T20:26:42.989Z,7.90
2019-04-11T20:29:10.275Z,8.50
2019-04-11T20:31:37.800Z,7.13
2019-04-11T20:34:07.302Z,7.43
2019-04-11T20:36:34.262Z,7.73
2019-04-11T20:39:01.837Z,7.27
2019-04-11T20:41:29.052Z,7.50
2019-04-11T20:43:57.250Z,7.17
2019-04-11T20:46:28.850Z,6.63
2019-04-11T20:48:54.767Z,7.63
2019-04-11T20:51:22.064Z,7.17
2019-04-11T20:53:49.619Z,7.10
2019-04-11T20:56:23.996Z,7.03
2019-04-11T20:58:46.505Z,7.30
2019-04-11T21:01:13.787Z,7.67
2019-04-11T21:03:41.014Z,7.27
2019-04-11T21:06:08.410Z,7.27
2019-04-11T21:08:37.203Z,6.93
2019-04-11T21:11:05.232Z,7.40
2019-04-11T21:13:32.642Z,6.53
2019-04-11T21:15:59.943Z,7.60
2019-04-11T21:18:27.167Z,6.60
2019-04-11T21:20:55.235Z,7.23
2019-04-11T21:23:24.765Z,7.00
2019-04-11T21:25:53.114Z,7.17
2019-04-11T21:28:21.728Z,7.63
2019-04-11T21:30:50.271Z,6.67
2019-04-11T21:33:18.154Z,7.80
2019-04-11T21:35:46.367Z,6.50
2019-04-11T21:38:13.668Z,7.23
2019-04-11T21:40:41.227Z,7.00
2019-04-11T21:43:09.859Z,7.17
2019-04-11T21:45:38.002Z,6.70
2019-04-11T21:48:06.898Z,7.93
2019-04-11T21:50:34.333Z,7.10
2019-04-11T21:53:01.555Z,7.17
2019-04-11T21:55:28.804Z,7.10
2019-04-11T21:57:56.061Z,7.03
2019-04-11T22:00:31.618Z,7.13
2019-04-11T22:02:58.827Z,7.13
2019-04-11T22:05:28.877Z,8.03
2019-04-11T22:07:55.555Z,6.57
2019-04-11T22:10:22.852Z,6.80
2019-04-11T22:12:50.351Z,7.07
2019-04-11T22:15:18.095Z,7.40
2019-04-11T22:17:45.437Z,7.93
2019-04-11T22:20:16.831Z,7.20
2019-04-11T22:22:43.668Z,7.67
2019-04-11T22:25:12.753Z,7.60
2019-04-11T22:27:39.978Z,7.37
2019-04-11T22:30:08.092Z,7.17
2019-04-11T22:32:35.637Z,7.83
2019-04-11T22:35:03.178Z,8.00
2019-04-11T22:37:30.681Z,7.57
2019-04-11T22:40:01.692Z,7.67
2019-04-11T22:42:27.203Z,7.50
2019-04-11T22:44:54.782Z,8.33
2019-04-11T22:47:22.321Z,7.83
2019-04-11T22:49:49.883Z,7.13
2019-04-11T22:52:17.216Z,7.70
2019-04-11T22:54:44.466Z,7.43
2019-04-11T22:57:12.803Z,7.53
2019-04-11T22:59:44.084Z,8.13
2019-04-11T23:02:32.560Z,7.80
2019-04-11T23:04:59.807Z,7.33
2019-04-11T23:07:27.035Z,8.37
2019-04-11T23:09:54.540Z,8.20
2019-04-11T23:12:22.180Z,7.70
2019-04-11T23:14:49.424Z,7.90
2019-04-11T23:17:16.993Z,7.97
2019-04-11T23:19:45.179Z,7.87
2019-04-11T23:22:12.825Z,7.93
2019-04-11T23:24:40.153Z,7.53
2019-04-11T23:27:07.444Z,8.03
2019-04-11T23:29:34.666Z,8.40
2019-04-11T23:32:01.949Z,8.20
2019-04-11T23:34:29.176Z,7.77
2019-04-11T23:36:56.493Z,7.80
2019-04-11T23:39:24.219Z,8.50
2019-04-11T23:41:51.624Z,8.37
2019-04-11T23:44:20.366Z,8.50
2019-04-11T23:46:51.804Z,8.53
2019-04-11T23:49:17.188Z,7.63
2019-04-11T23:51:44.865Z,8.37
2019-04-11T23:54:22.571Z,7.70
2019-04-11T23:56:41.882Z,7.70
2019-04-11T23:59:09.449Z,7.33
